.
WxDataArchive / Data Records for 2015-06-30
2015-06-29 June 2015 2015-07-01

Data Records for Tuesday, 30 June 2015

Time	Temp	Chill	HIndex	Humid	Dewpt	 Wind 	HiWind	WindDir	Rain 	Barom
-----	----	-----	------	-----	-----	------	------	-------	-----	-----
00:00	61.5	61.5	61.5	92	59.2	0	0	---	0.00	29.789 
00:05	61.2	61.2	61.2	92	58.9	0	0	---	0.00	29.789 
00:10	61.0	61.0	61.0	92	58.7	0	0	---	0.00	29.789 
00:15	60.9	60.9	60.9	92	58.6	0	0	---	0.00	29.793 
00:20	60.7	60.7	60.7	92	58.4	0	0	---	0.00	29.793 
00:25	60.5	60.5	60.5	92	58.2	0	0	---	0.00	29.793 
00:30	60.4	60.4	60.4	92	58.1	0	0	---	0.00	29.795 
00:35	60.2	60.2	60.2	92	57.9	0	0	---	0.00	29.795 
00:40	59.9	59.9	59.9	92	57.6	0	0	---	0.00	29.795 
00:45	59.8	59.8	59.8	92	57.5	0	0	---	0.00	29.794 
00:50	59.6	59.6	59.6	92	57.3	0	0	---	0.00	29.794 
00:55	59.5	59.5	59.5	92	57.2	0	0	---	0.00	29.794 
01:00	59.5	59.5	59.5	92	57.2	0	0	---	0.00	29.791 
01:05	59.5	59.5	59.5	93	57.5	0	0	---	0.00	29.791 
01:10	59.3	59.3	59.3	93	57.3	0	0	---	0.00	29.791 
01:15	59.3	59.3	59.3	93	57.3	0	0	---	0.00	29.793 
01:20	59.2	59.2	59.2	93	57.2	0	0	---	0.00	29.793 
01:25	59.0	59.0	59.0	93	57.0	0	0	---	0.00	29.793 
01:30	58.9	58.9	58.9	93	56.9	0	0	---	0.00	29.794 
01:35	58.7	58.7	58.7	93	56.7	0	0	---	0.00	29.794 
01:40	58.7	58.7	58.7	93	56.7	0	0	---	0.00	29.794 
01:45	58.6	58.6	58.6	93	56.6	0	0	---	0.00	29.794 
01:50	58.6	58.6	58.6	93	56.6	0	0	---	0.00	29.794 
01:55	58.6	58.6	58.6	93	56.6	0	0	---	0.00	29.794 
02:00	58.7	58.7	58.7	94	57.0	0	0	---	0.00	29.783 
02:05	58.9	58.9	58.9	94	57.2	0	0	---	0.00	29.783 
02:10	58.9	58.9	58.9	94	57.2	0	0	---	0.00	29.783 
02:15	58.9	58.9	58.9	94	57.2	0	0	---	0.00	29.786 
02:20	58.9	58.9	58.9	94	57.2	0	0	---	0.00	29.786 
02:25	58.9	58.9	58.9	94	57.2	0	0	---	0.00	29.786 
02:30	58.9	58.9	58.9	94	57.2	0	0	---	0.00	29.783 
02:35	58.9	58.9	58.9	94	57.2	0	0	---	0.00	29.783 
02:40	58.7	58.7	58.7	94	57.0	0	0	---	0.00	29.783 
02:45	58.7	58.7	58.7	94	57.0	0	0	---	0.00	29.780 
02:50	58.6	58.6	58.6	94	56.9	0	0	---	0.00	29.780 
02:55	58.4	58.4	58.4	94	56.7	0	0	---	0.00	29.780 
03:00	58.4	58.4	58.4	94	56.7	0	0	---	0.00	29.781 
03:05	58.3	58.3	58.3	94	56.6	0	0	---	0.00	29.781 
03:10	58.3	58.3	58.3	94	56.6	0	0	---	0.00	29.781 
03:15	58.3	58.3	58.3	94	56.6	0	0	---	0.00	29.781 
03:20	58.3	58.3	58.3	95	56.9	0	0	---	0.00	29.781 
03:25	58.3	58.3	58.3	95	56.9	0	0	---	0.00	29.781 
03:30	58.4	58.4	58.4	95	57.0	0	0	---	0.00	29.777 
03:35	58.4	58.4	58.4	95	57.0	0	0	---	0.00	29.777 
03:40	58.7	58.7	58.7	95	57.3	0	0	---	0.00	29.777 
03:45	59.0	59.0	59.0	95	57.6	0	0	---	0.00	29.771 
03:50	59.3	59.3	59.3	95	57.9	0	0	---	0.00	29.771 
03:55	59.5	59.5	59.5	95	58.1	0	0	---	0.00	29.771 
04:00	59.8	59.8	59.8	95	58.4	0	0	---	0.00	29.773 
04:05	59.9	59.9	59.9	95	58.5	0	0	---	0.00	29.773 
04:10	60.1	60.1	60.1	95	58.7	0	0	---	0.00	29.773 
04:15	60.1	60.1	60.1	95	58.7	0	0	---	0.00	29.768 
04:20	60.1	60.1	60.1	95	58.7	0	0	---	0.00	29.768 
04:25	60.2	60.2	60.2	95	58.8	0	0	---	0.00	29.768 
04:30	60.2	60.2	60.2	95	58.8	0	0	---	0.00	29.765 
04:35	60.2	60.2	60.2	96	59.1	0	0	---	0.00	29.765 
04:40	60.2	60.2	60.2	96	59.1	0	0	---	0.00	29.765 
04:45	60.2	60.2	60.2	95	58.8	0	0	---	0.00	29.767 
04:50	60.2	60.2	60.2	96	59.1	0	0	---	0.00	29.767 
04:55	60.2	60.2	60.2	96	59.1	0	0	---	0.00	29.767 
05:00	60.2	60.2	60.2	96	59.1	0	0	---	0.00	29.765 
05:05	60.2	60.2	60.2	96	59.1	0	0	---	0.00	29.765 
05:10	60.2	60.2	60.2	96	59.1	0	0	---	0.00	29.765 
05:15	60.2	60.2	60.2	96	59.1	0	0	---	0.00	29.765 
05:20	60.2	60.2	60.2	96	59.1	0	0	---	0.00	29.765 
05:25	60.2	60.2	60.2	96	59.1	0	0	---	0.00	29.765 
05:30	60.2	60.2	60.2	96	59.1	0	0	---	0.00	29.762 
05:35	60.2	60.2	60.2	96	59.1	0	0	---	0.00	29.762 
05:40	60.2	60.2	60.2	96	59.1	0	0	---	0.00	29.762 
05:45	60.2	60.2	60.2	96	59.1	0	0	---	0.00	29.757 
05:50	60.2	60.2	60.2	96	59.1	0	0	---	0.00	29.757 
05:55	60.2	60.2	60.2	96	59.1	0	0	---	0.00	29.757 
06:00	60.2	60.2	60.2	96	59.1	0	0	---	0.00	29.760 
06:05	60.2	60.2	60.2	96	59.1	0	0	---	0.00	29.760 
06:10	60.2	60.2	60.2	96	59.1	0	0	---	0.00	29.760 
06:15	60.2	60.2	60.2	96	59.1	0	0	---	0.00	29.762 
06:20	60.2	60.2	60.2	96	59.1	0	0	---	0.00	29.762 
06:25	60.2	60.2	60.2	96	59.1	0	0	---	0.00	29.762 
06:30	60.2	60.2	60.2	96	59.1	0	0	---	0.00	29.769 
06:35	60.4	60.4	60.4	96	59.3	0	0	---	0.00	29.769 
06:40	60.4	60.4	60.4	96	59.3	0	0	---	0.00	29.769 
06:45	60.5	60.5	60.5	96	59.4	0	0	---	0.00	29.775 
06:50	60.5	60.5	60.5	96	59.4	0	0	---	0.00	29.775 
06:55	60.5	60.5	60.5	96	59.4	0	1	90	0.00	29.775 
07:00	60.5	60.5	60.5	96	59.4	0	1	90	0.00	29.780 
07:05	60.7	60.7	60.7	96	59.6	0	1	90	0.00	29.780 
07:10	60.7	60.7	60.7	96	59.6	0	0	---	0.00	29.780 
07:15	60.9	60.9	60.9	96	59.7	0	1	90	0.00	29.780 
07:20	60.9	60.9	60.9	96	59.7	0	1	90	0.00	29.780 
07:25	60.9	60.9	60.9	96	59.7	0	0	---	0.00	29.780 
07:30	61.0	61.0	61.0	96	59.8	0	0	---	0.00	29.791 
07:35	60.9	60.9	60.9	96	59.7	0	0	---	0.00	29.791 
07:40	61.0	61.0	61.0	96	59.8	0	0	---	0.00	29.791 
07:45	61.2	61.2	61.2	96	60.0	0	0	---	0.00	29.792 
07:50	61.3	61.3	61.3	96	60.1	0	0	---	0.00	29.792 
07:55	61.3	61.3	61.3	96	60.1	0	2	90	0.00	29.792 
08:00	61.5	61.5	61.5	96	60.3	0	1	90	0.00	29.792 
08:05	61.5	61.5	61.5	96	60.3	0	0	---	0.00	29.792 
08:10	61.6	61.6	61.6	96	60.4	0	0	---	0.00	29.792 
08:15	61.8	61.8	61.8	96	60.6	0	0	---	0.00	29.789 
08:20	62.0	62.0	62.0	96	60.8	0	0	---	0.00	29.789 
08:25	62.3	62.3	62.3	96	61.1	0	1	90	0.00	29.789 
08:30	62.6	62.6	62.6	96	61.4	0	1	90	0.00	29.784 
08:35	62.7	62.7	62.7	96	61.5	0	1	90	0.00	29.784 
08:40	62.9	62.9	62.9	96	61.7	0	2	90	0.00	29.784 
08:45	63.1	63.1	63.1	96	61.9	0	1	0	0.00	29.784 
08:50	63.2	63.2	63.2	96	62.0	0	1	0	0.00	29.784 
08:55	63.4	63.4	63.4	96	62.2	0	1	0	0.00	29.784 
09:00	63.5	63.5	63.5	96	62.3	0	1	0	0.00	29.786 
09:05	63.7	63.7	63.7	96	62.5	0	1	0	0.00	29.786 
09:10	64.0	64.0	64.0	95	62.5	0	0	---	0.00	29.786 
09:15	64.2	64.2	64.2	95	62.7	0	1	0	0.00	29.786 
09:20	64.3	64.3	64.3	95	62.8	0	0	---	0.00	29.786 
09:25	64.7	64.7	64.7	95	63.2	0	0	---	0.00	29.786 
09:30	64.8	64.8	64.8	94	63.0	0	0	---	0.00	29.788 
09:35	65.0	65.0	65.0	94	63.2	0	0	---	0.00	29.788 
09:40	65.2	65.2	65.2	94	63.4	0	0	---	0.00	29.788 
09:45	65.0	65.0	65.0	94	63.2	0	0	---	0.00	29.789 
09:50	65.0	65.0	65.0	94	63.2	0	0	---	0.01	29.789 
09:55	65.0	65.0	65.0	93	62.9	0	0	---	0.00	29.789 
10:00	65.0	65.0	65.0	93	62.9	0	0	---	0.00	29.790 
10:05	65.0	65.0	65.0	94	63.2	0	0	---	0.00	29.790 
10:10	65.0	65.0	65.0	93	62.9	0	1	0	0.00	29.790 
10:15	65.0	65.0	65.0	94	63.2	0	0	---	0.01	29.780 
10:20	65.0	65.0	65.0	94	63.2	0	0	---	0.00	29.780 
10:25	65.0	65.0	65.0	94	63.2	0	0	---	0.01	29.780 
10:30	65.2	65.2	65.2	94	63.4	0	0	---	0.00	29.777 
10:35	65.2	65.2	65.2	94	63.4	0	0	---	0.01	29.777 
10:40	65.2	65.2	65.2	94	63.4	0	0	---	0.00	29.777 
10:45	65.2	65.2	65.2	94	63.4	0	0	---	0.00	29.780 
10:50	65.2	65.2	65.2	94	63.4	0	0	---	0.00	29.780 
10:55	65.2	65.2	65.2	94	63.4	0	0	---	0.00	29.780 
11:00	65.3	65.3	65.3	94	63.5	0	0	---	0.00	29.779 
11:05	65.5	65.5	65.5	94	63.7	0	0	---	0.01	29.779 
11:10	65.5	65.5	65.5	94	63.7	0	0	---	0.00	29.779 
11:15	65.5	65.5	65.5	94	63.7	0	0	---	0.00	29.783 
11:20	65.3	65.3	65.3	94	63.5	0	0	---	0.00	29.783 
11:25	65.5	65.5	65.5	94	63.7	0	0	---	0.01	29.783 
11:30	65.3	65.3	65.3	94	63.5	0	0	---	0.00	29.783 
11:35	65.3	65.3	65.3	94	63.5	0	1	0	0.01	29.783 
11:40	65.5	65.5	65.5	94	63.7	0	0	---	0.00	29.783 
11:45	65.5	65.5	65.5	94	63.7	0	0	---	0.00	29.776 
11:50	65.6	65.6	65.6	94	63.8	0	0	---	0.00	29.776 
11:55	65.8	65.8	65.8	94	64.0	0	1	0	0.00	29.776 
12:00	66.0	66.0	66.0	95	64.5	0	0	---	0.00	29.775 
12:05	66.1	66.1	66.1	94	64.3	0	1	0	0.00	29.775 
12:10	66.3	66.3	66.3	95	64.8	0	0	---	0.00	29.775 
12:15	66.4	66.4	66.4	95	64.9	0	1	0	0.00	29.777 
12:20	66.6	66.6	66.6	94	64.8	0	1	0	0.00	29.777 
12:25	66.9	66.9	66.9	95	65.4	0	1	0	0.00	29.777 
12:30	67.4	67.4	67.4	94	65.6	0	1	0	0.00	29.776 
12:35	67.6	67.6	67.6	94	65.8	0	2	0	0.00	29.776 
12:40	68.1	68.1	68.1	94	66.3	0	3	0	0.00	29.776 
12:45	68.3	68.3	68.3	93	66.2	0	1	0	0.00	29.774 
12:50	68.6	68.6	68.6	93	66.5	0	1	0	0.00	29.774 
12:55	68.8	68.8	68.8	92	66.4	0	2	0	0.00	29.774 
13:00	68.6	68.6	68.6	91	65.9	0	1	0	0.00	29.774 
13:05	68.9	68.9	68.9	90	65.8	0	2	0	0.00	29.774 
13:10	69.1	69.1	69.1	89	65.7	0	2	0	0.00	29.774 
13:15	69.3	69.3	69.3	88	65.6	0	1	0	0.00	29.773 
13:20	69.8	69.8	69.8	88	66.1	0	1	0	0.00	29.773 
13:25	70.1	70.1	70.1	86	65.7	0	1	0	0.00	29.773 
13:30	70.4	70.4	70.4	82	64.6	1	3	0	0.00	29.764 
13:35	70.6	70.6	70.6	80	64.1	1	3	0	0.00	29.764 
13:40	70.8	70.8	70.8	79	64.0	1	3	315	0.00	29.764 
13:45	70.8	70.8	70.8	78	63.6	1	3	315	0.00	29.762 
13:50	70.9	70.9	70.9	78	63.7	0	1	315	0.00	29.762 
13:55	71.6	71.6	71.6	78	64.4	1	3	315	0.00	29.762 
14:00	72.1	72.1	72.1	76	64.1	1	3	315	0.00	29.758 
14:05	72.3	72.3	72.3	75	63.9	1	4	315	0.00	29.758 
14:10	72.7	72.7	72.7	76	64.7	0	1	315	0.00	29.758 
14:15	72.8	72.8	72.8	75	64.4	0	2	315	0.00	29.758 
14:20	72.8	72.8	72.8	73	63.6	0	2	315	0.00	29.758 
14:25	72.8	72.8	72.8	73	63.6	1	3	315	0.00	29.758 
14:30	73.0	73.0	73.0	72	63.4	1	3	315	0.00	29.756 
14:35	73.2	73.2	73.2	72	63.6	1	3	315	0.00	29.756 
14:40	73.0	73.0	73.0	73	63.8	1	4	292	0.00	29.756 
14:45	73.0	73.0	73.0	72	63.4	2	4	292	0.00	29.754 
14:50	73.3	73.3	73.3	73	64.1	0	3	292	0.00	29.754 
14:55	73.9	73.9	73.9	72	64.3	1	4	292	0.00	29.754 
15:00	74.6	74.6	74.6	71	64.6	1	4	292	0.00	29.740 
15:05	74.6	74.6	74.6	69	63.7	1	4	292	0.00	29.740 
15:10	74.9	74.9	74.9	68	63.6	2	5	270	0.00	29.740 
15:15	75.4	75.4	77.3	67	63.7	2	3	270	0.00	29.739 
15:20	75.6	75.6	77.5	65	63.0	1	3	270	0.00	29.739 
15:25	75.8	75.8	77.7	66	63.6	2	4	270	0.00	29.739 
15:30	76.1	76.1	78.0	65	63.5	1	5	270	0.00	29.737 
15:35	76.3	76.3	78.1	65	63.6	1	3	270	0.00	29.737 
15:40	76.3	76.3	78.1	65	63.6	1	4	270	0.00	29.737 
15:45	76.3	76.3	78.2	62	62.3	2	4	270	0.00	29.736 
15:50	75.8	75.8	77.8	63	62.3	3	5	292	0.00	29.736 
15:55	75.6	75.6	77.6	64	62.5	1	4	292	0.00	29.736 
16:00	76.0	76.0	77.9	65	63.4	1	4	292	0.00	29.732 
16:05	76.3	76.3	78.2	63	62.8	2	6	270	0.00	29.732 
16:10	76.7	76.7	78.5	62	62.7	1	5	292	0.00	29.732 
16:15	76.7	76.7	78.5	61	62.2	2	5	270	0.00	29.725 
16:20	76.5	76.5	78.3	63	62.9	2	5	338	0.00	29.725 
16:25	76.7	76.7	78.5	62	62.7	2	5	338	0.00	29.725 
16:30	76.8	76.8	78.6	62	62.8	2	5	292	0.00	29.723 
16:35	77.0	77.0	78.8	61	62.5	2	5	270	0.00	29.723 
16:40	77.4	77.4	79.2	62	63.3	1	4	270	0.00	29.723 
16:45	77.4	77.4	79.1	60	62.4	3	6	270	0.00	29.724 
16:50	77.6	77.6	79.3	59	62.1	2	4	292	0.00	29.724 
16:55	77.6	77.6	79.2	57	61.1	2	5	292	0.00	29.724 
17:00	77.4	77.4	79.0	56	60.5	3	7	292	0.00	29.725 
17:05	77.4	77.4	79.1	59	61.9	2	5	270	0.00	29.725 
17:10	77.4	77.4	79.1	58	61.4	2	5	292	0.00	29.725 
17:15	77.4	77.4	79.1	59	61.9	1	5	315	0.00	29.722 
17:20	77.2	77.2	78.9	58	61.3	1	4	315	0.00	29.722 
17:25	77.2	77.2	78.9	57	60.8	3	6	315	0.00	29.722 
17:30	77.2	77.2	78.9	59	61.7	2	7	270	0.00	29.721 
17:35	77.4	77.4	79.1	58	61.4	2	5	270	0.00	29.721 
17:40	77.0	77.0	78.7	57	60.6	2	5	270	0.00	29.721 
17:45	76.3	76.3	78.2	59	60.9	3	6	292	0.00	29.721 
17:50	76.0	76.0	78.0	60	61.1	2	4	292	0.00	29.721 
17:55	76.1	76.1	78.1	60	61.2	2	5	292	0.00	29.721 
18:00	76.0	76.0	78.0	60	61.1	2	5	292	0.00	29.721 
18:05	76.3	76.3	78.2	60	61.4	2	5	270	0.00	29.721 
18:10	76.3	76.3	78.2	59	60.9	3	6	292	0.00	29.721 
18:15	75.8	75.8	77.9	60	60.9	2	5	270	0.00	29.722 
18:20	75.8	75.8	77.9	58	59.9	3	6	315	0.00	29.722 
18:25	76.0	76.0	78.0	58	60.1	3	7	315	0.00	29.722 
18:30	76.0	76.0	78.1	57	59.6	4	10	270	0.00	29.733 
18:35	75.8	75.8	77.9	58	59.9	3	6	270	0.00	29.733 
18:40	75.4	75.4	77.6	59	60.1	3	7	270	0.00	29.733 
18:45	75.3	75.3	77.6	59	60.0	3	6	315	0.00	29.736 
18:50	75.1	75.1	77.5	59	59.8	2	5	270	0.00	29.736 
18:55	75.1	75.1	77.5	59	59.8	2	5	292	0.00	29.736 
19:00	75.1	75.1	77.5	59	59.8	2	4	292	0.00	29.737 
19:05	74.9	74.9	74.9	59	59.6	3	7	292	0.00	29.737 
19:10	74.4	74.4	74.4	58	58.6	3	10	292	0.00	29.737 
19:15	74.2	74.2	74.2	59	58.9	2	5	292	0.00	29.740 
19:20	74.0	74.0	74.0	59	58.7	2	4	292	0.00	29.740 
19:25	73.9	73.9	73.9	61	59.6	2	5	292	0.00	29.740 
19:30	73.7	73.7	73.7	61	59.4	2	5	292	0.00	29.750 
19:35	73.3	73.3	73.3	61	59.0	3	6	270	0.00	29.750 
19:40	73.0	73.0	73.0	61	58.7	2	5	315	0.00	29.750 
19:45	72.8	72.8	72.8	62	59.0	2	4	315	0.00	29.756 
19:50	72.7	72.7	72.7	62	58.9	2	4	292	0.00	29.756 
19:55	72.3	72.3	72.3	63	59.0	3	7	270	0.00	29.756 
20:00	72.0	72.0	72.0	64	59.1	2	5	270	0.00	29.761 
20:05	71.8	71.8	71.8	64	59.0	1	4	270	0.00	29.761 
20:10	71.6	71.6	71.6	65	59.2	1	3	270	0.00	29.761 
20:15	71.5	71.5	71.5	64	58.7	1	3	270	0.00	29.759 
20:20	71.3	71.3	71.3	65	58.9	0	3	270	0.00	29.759 
20:25	71.1	71.1	71.1	64	58.3	2	5	315	0.00	29.759 
20:30	70.9	70.9	70.9	65	58.5	1	3	315	0.00	29.769 
20:35	70.8	70.8	70.8	65	58.4	1	4	315	0.00	29.769 
20:40	70.6	70.6	70.6	65	58.2	2	5	315	0.00	29.769 
20:45	70.3	70.3	70.3	66	58.4	1	4	292	0.00	29.770 
20:50	70.1	70.1	70.1	66	58.2	1	4	292	0.00	29.770 
20:55	69.9	69.9	69.9	67	58.4	1	3	292	0.00	29.770 
21:00	69.8	69.8	69.8	67	58.3	1	4	292	0.00	29.772 
21:05	69.6	69.6	69.6	68	58.6	1	3	292	0.00	29.772 
21:10	69.4	69.4	69.4	69	58.8	0	1	292	0.00	29.772 
21:15	69.1	69.1	69.1	69	58.5	0	0	---	0.00	29.773 
21:20	68.9	68.9	68.9	70	58.7	0	1	292	0.00	29.773 
21:25	68.8	68.8	68.8	71	59.0	0	2	292	0.00	29.773 
21:30	68.6	68.6	68.6	72	59.2	0	0	---	0.00	29.783 
21:35	68.3	68.3	68.3	73	59.3	0	1	292	0.00	29.783 
21:40	68.1	68.1	68.1	73	59.1	0	2	292	0.00	29.783 
21:45	67.9	67.9	67.9	74	59.3	0	2	292	0.00	29.789 
21:50	67.8	67.8	67.8	75	59.6	1	5	292	0.00	29.789 
21:55	67.8	67.8	67.8	74	59.2	1	4	292	0.00	29.789 
22:00	67.6	67.6	67.6	74	59.0	0	2	292	0.00	29.789 
22:05	67.6	67.6	67.6	75	59.4	2	4	292	0.00	29.789 
22:10	67.4	67.4	67.4	75	59.2	1	3	315	0.00	29.789 
22:15	67.3	67.3	67.3	75	59.1	1	4	315	0.00	29.789 
22:20	67.1	67.1	67.1	76	59.3	0	2	315	0.00	29.789 
22:25	66.9	66.9	66.9	77	59.4	0	2	315	0.00	29.789 
22:30	66.6	66.6	66.6	77	59.2	0	3	315	0.00	29.791 
22:35	66.4	66.4	66.4	78	59.3	1	2	315	0.00	29.791 
22:40	66.3	66.3	66.3	78	59.2	1	3	315	0.00	29.791 
22:45	66.1	66.1	66.1	78	59.0	0	1	315	0.00	29.804 
22:50	66.0	66.0	66.0	79	59.3	0	2	315	0.00	29.804 
22:55	65.6	65.6	65.6	79	58.9	0	3	315	0.00	29.804 
23:00	65.5	65.5	65.5	80	59.2	1	5	315	0.00	29.806 
23:05	65.5	65.5	65.5	80	59.2	1	4	270	0.00	29.806 
23:10	65.3	65.3	65.3	80	59.0	1	3	270	0.00	29.806 
23:15	65.2	65.2	65.2	80	58.9	0	1	270	0.00	29.812 
23:20	65.0	65.0	65.0	81	59.0	1	3	270	0.00	29.812 
23:25	64.8	64.8	64.8	81	58.8	1	4	270	0.00	29.812 
23:30	64.7	64.7	64.7	81	58.7	1	2	270	0.00	29.812 
23:35	64.5	64.5	64.5	81	58.5	1	3	270	0.00	29.812 
23:40	64.3	64.3	64.3	82	58.7	1	3	270	0.00	29.812 
23:45	64.2	64.2	64.2	82	58.6	1	3	270	0.00	29.815 
23:50	64.2	64.2	64.2	82	58.6	0	2	270	0.00	29.815 
23:55	64.0	64.0	64.0	82	58.4	1	3	270	0.00	29.815 

CoCoRaHS
IN-AL-39
A2 Web Hosting
Creative Commons License
GoDaddy
search engine by freefind advanced

loaded 2018-11-15 16:34:39 • last modified 2010-11-18 10:43:29
Privacy PolicyDisclaimer
• wx.awcolley.com is powered by PmWiki v.2002016 •
• all content (unless otherwise noted) © 2018 A W Colley